Time;durP1;ratioP1;P1;durP2;ratioP2;P2;SDS_P1;SDS_P2;PMS_P1;PMS_P2;Temp;Humidity;BMP_temperature;BMP_pressure;BME280_temperature;BME280_humidity;BME280_pressure;Samples;Min_cycle;Max_cycle;Signal;HPM_P1;HPM_P2
2022/03/06 00:02:06;;;;;;;9.75;4.55;;;;;;;;;;5068541;28;20055;-79
2022/03/06 00:04:32;;;;;;;7.90;4.18;;;;;;;;;;5051584;28;20534;-79
2022/03/06 00:06:58;;;;;;;10.75;4.70;;;;;;;;;;5055913;28;20490;-79
2022/03/06 00:09:25;;;;;;;6.57;4.32;;;;;;;;;;5059220;28;20055;-79
2022/03/06 00:11:52;;;;;;;7.47;4.40;;;;;;;;;;5060065;28;20024;-79
2022/03/06 00:14:18;;;;;;;11.57;5.40;;;;;;;;;;5061328;28;20016;-78
2022/03/06 00:16:46;;;;;;;11.80;5.20;;;;;;;;;;5056743;28;20531;-82
2022/03/06 00:19:12;;;;;;;10.32;5.07;;;;;;;;;;5062220;28;20103;-84
2022/03/06 00:21:39;;;;;;;11.18;5.65;;;;;;;;;;5061822;28;20052;-76
2022/03/06 00:24:05;;;;;;;12.13;5.35;;;;;;;;;;5067920;28;20039;-77
2022/03/06 00:26:31;;;;;;;12.15;5.93;;;;;;;;;;5062947;28;20527;-81
2022/03/06 00:28:58;;;;;;;7.97;5.00;;;;;;;;;;5053222;28;20358;-81
2022/03/06 00:31:24;;;;;;;10.35;4.85;;;;;;;;;;5062804;28;20036;-79
2022/03/06 00:33:50;;;;;;;9.15;4.68;;;;;;;;;;5067674;28;20024;-82
2022/03/06 00:36:17;;;;;;;11.07;5.03;;;;;;;;;;5063933;28;20449;-79
2022/03/06 00:38:43;;;;;;;11.20;4.65;;;;;;;;;;5059897;28;20039;-81
2022/03/06 00:41:09;;;;;;;10.10;4.88;;;;;;;;;;5061833;28;20017;-82
2022/03/06 00:43:35;;;;;;;7.75;5.10;;;;;;;;;;5067931;28;20481;-81
2022/03/06 00:46:01;;;;;;;10.80;4.78;;;;;;;;;;5061151;28;20075;-82
2022/03/06 00:48:27;;;;;;;6.97;4.32;;;;;;;;;;5062603;28;20024;-81
2022/03/06 00:50:54;;;;;;;10.40;4.95;;;;;;;;;;5057506;28;20021;-81
2022/03/06 00:53:20;;;;;;;11.38;4.38;;;;;;;;;;5059718;28;20032;-77
2022/03/06 00:55:46;;;;;;;8.48;4.32;;;;;;;;;;5065103;28;20104;-82
2022/03/06 00:58:13;;;;;;;8.93;4.13;;;;;;;;;;5062012;28;20017;-77
2022/03/06 01:00:40;;;;;;;9.15;4.40;;;;;;;;;;5061713;28;20036;-80
2022/03/06 01:03:10;;;;;;;9.05;4.15;;;;;;;;;;5061410;28;20040;-83
2022/03/06 01:05:36;;;;;;;10.63;4.45;;;;;;;;;;5059439;28;20017;-82
2022/03/06 01:08:03;;;;;;;6.35;4.20;;;;;;;;;;5065523;28;20029;-82
2022/03/06 01:10:30;;;;;;;13.40;4.72;;;;;;;;;;5060963;28;20035;-77
2022/03/06 01:12:56;;;;;;;8.57;4.03;;;;;;;;;;5053807;28;20094;-80
2022/03/06 01:15:22;;;;;;;6.80;3.63;;;;;;;;;;5058395;28;20597;-81
2022/03/06 01:17:49;;;;;;;9.07;4.38;;;;;;;;;;5060123;28;20103;-79
2022/03/06 01:20:17;;;;;;;8.88;4.25;;;;;;;;;;5055991;28;20496;-77
2022/03/06 01:22:44;;;;;;;8.27;4.13;;;;;;;;;;5058637;28;20422;-78
2022/03/06 01:25:10;;;;;;;6.10;3.90;;;;;;;;;;5061758;28;20108;-79
2022/03/06 01:27:36;;;;;;;6.15;3.90;;;;;;;;;;5059185;28;20609;-81
2022/03/06 01:30:05;;;;;;;9.88;4.47;;;;;;;;;;5058848;28;20021;-79
2022/03/06 01:32:32;;;;;;;7.07;4.28;;;;;;;;;;5056578;28;20029;-82
2022/03/06 01:34:58;;;;;;;7.40;4.32;;;;;;;;;;5057719;28;20023;-82
2022/03/06 01:37:25;;;;;;;9.00;4.47;;;;;;;;;;5060382;28;20043;-77
2022/03/06 01:39:51;;;;;;;7.15;4.20;;;;;;;;;;5060382;28;20021;-80
2022/03/06 01:42:17;;;;;;;6.72;4.65;;;;;;;;;;5060984;28;20030;-76
2022/03/06 01:44:48;;;;;;;6.38;4.30;;;;;;;;;;5060282;28;20028;-82
2022/03/06 01:47:30;;;;;;;10.88;4.50;;;;;;;;;;5059404;28;20063;-80
2022/03/06 01:49:56;;;;;;;11.30;4.35;;;;;;;;;;5062551;28;20070;-79
2022/03/06 01:52:22;;;;;;;11.27;4.60;;;;;;;;;;5062947;28;20020;-77
2022/03/06 01:54:48;;;;;;;7.60;4.60;;;;;;;;;;5070826;28;20025;-78
2022/03/06 01:57:15;;;;;;;10.00;4.43;;;;;;;;;;5053598;28;20039;-80
2022/03/06 01:59:41;;;;;;;7.15;4.03;;;;;;;;;;5059081;28;20484;-81
2022/03/06 02:02:07;;;;;;;9.23;4.70;;;;;;;;;;5062185;28;20422;-80
2022/03/06 02:04:33;;;;;;;7.10;4.53;;;;;;;;;;5059144;28;20104;-79
2022/03/06 02:06:59;;;;;;;7.43;4.70;;;;;;;;;;5058902;28;20481;-82
2022/03/06 02:09:25;;;;;;;12.13;4.63;;;;;;;;;;5060357;28;20024;-77
2022/03/06 02:14:37;;;;;;;9.75;4.95;;;;;;;;;;5062909;28;20503;-82
2022/03/06 02:17:03;;;;;;;10.52;4.80;;;;;;;;;;5062889;28;20028;-79
2022/03/06 02:19:29;;;;;;;15.00;4.78;;;;;;;;;;5054525;28;20032;-78
2022/03/06 02:21:56;;;;;;;9.38;4.57;;;;;;;;;;5069834;28;20059;-81
2022/03/06 02:24:22;;;;;;;8.77;5.20;;;;;;;;;;5068733;28;20589;-81
2022/03/06 02:26:48;;;;;;;11.70;4.78;;;;;;;;;;5060212;28;20025;-77
2022/03/06 02:29:15;;;;;;;11.35;4.50;;;;;;;;;;5059594;28;20032;-77
2022/03/06 02:31:41;;;;;;;8.70;4.45;;;;;;;;;;5054191;28;20025;-77
2022/03/06 02:34:08;;;;;;;8.73;5.03;;;;;;;;;;5058245;28;20043;-77
2022/03/06 02:36:34;;;;;;;9.75;4.95;;;;;;;;;;5059509;28;20121;-80
2022/03/06 02:39:00;;;;;;;17.15;5.38;;;;;;;;;;5059432;28;20112;-81
2022/03/06 02:41:26;;;;;;;12.52;5.30;;;;;;;;;;5056031;28;20111;-77
2022/03/06 02:43:52;;;;;;;10.88;5.38;;;;;;;;;;5059370;28;20036;-76
2022/03/06 02:46:18;;;;;;;10.35;5.75;;;;;;;;;;5058517;28;20017;-76
2022/03/06 02:48:44;;;;;;;11.32;5.28;;;;;;;;;;5067145;28;20020;-77
2022/03/06 02:51:11;;;;;;;10.70;5.53;;;;;;;;;;5068054;28;20025;-77
2022/03/06 02:53:37;;;;;;;10.90;5.30;;;;;;;;;;5067926;28;20033;-76
2022/03/06 02:56:03;;;;;;;9.63;5.07;;;;;;;;;;5062783;28;20027;-77
2022/03/06 02:58:29;;;;;;;16.75;6.15;;;;;;;;;;5067268;28;20032;-81
2022/03/06 03:00:55;;;;;;;10.10;5.70;;;;;;;;;;5059966;28;20056;-79
2022/03/06 03:03:22;;;;;;;10.05;5.47;;;;;;;;;;5064139;28;20036;-80
2022/03/06 03:05:48;;;;;;;10.10;6.38;;;;;;;;;;5059698;28;20029;-77
2022/03/06 03:08:15;;;;;;;14.45;5.93;;;;;;;;;;5057052;28;20480;-77
2022/03/06 03:10:41;;;;;;;10.02;5.50;;;;;;;;;;5063176;28;20017;-77
2022/03/06 03:13:08;;;;;;;13.85;6.05;;;;;;;;;;5059804;28;20028;-77
2022/03/06 03:15:34;;;;;;;10.65;5.75;;;;;;;;;;5058770;28;20024;-77
2022/03/06 03:18:00;;;;;;;9.50;5.50;;;;;;;;;;5059754;28;20044;-79
2022/03/06 03:20:26;;;;;;;9.07;5.20;;;;;;;;;;5062852;28;20029;-77
2022/03/06 03:22:52;;;;;;;9.68;5.68;;;;;;;;;;5059946;28;20124;-77
2022/03/06 03:25:18;;;;;;;12.20;6.22;;;;;;;;;;5061234;28;20025;-82
2022/03/06 03:27:45;;;;;;;11.63;5.82;;;;;;;;;;5061699;28;20035;-77
2022/03/06 03:30:11;;;;;;;11.65;5.60;;;;;;;;;;5070497;28;20082;-76
2022/03/06 03:32:38;;;;;;;12.55;6.38;;;;;;;;;;5054410;28;20037;-81
2022/03/06 03:35:04;;;;;;;14.18;5.53;;;;;;;;;;5059456;28;20104;-81
2022/03/06 03:37:30;;;;;;;13.75;5.60;;;;;;;;;;5065247;28;20026;-77
2022/03/06 03:39:56;;;;;;;14.32;5.68;;;;;;;;;;5077759;28;20389;-79
2022/03/06 03:42:23;;;;;;;11.25;6.30;;;;;;;;;;5061358;28;20108;-83
2022/03/06 03:44:49;;;;;;;10.82;5.65;;;;;;;;;;5056966;28;20055;-76
2022/03/06 03:47:15;;;;;;;10.27;6.18;;;;;;;;;;5064626;28;20025;-77
2022/03/06 03:49:41;;;;;;;10.88;5.97;;;;;;;;;;5066000;28;20021;-77
2022/03/06 03:52:07;;;;;;;10.57;5.90;;;;;;;;;;5059901;28;20074;-77
2022/03/06 03:54:35;;;;;;;12.82;6.32;;;;;;;;;;5059627;28;20033;-77
2022/03/06 03:57:01;;;;;;;12.02;5.88;;;;;;;;;;5051813;28;20075;-82
2022/03/06 03:59:28;;;;;;;9.13;5.55;;;;;;;;;;5060520;28;20025;-77
2022/03/06 04:01:54;;;;;;;10.85;6.05;;;;;;;;;;5056721;28;20548;-77
2022/03/06 04:04:20;;;;;;;14.57;6.20;;;;;;;;;;5055405;28;20432;-76
2022/03/06 04:06:46;;;;;;;11.98;5.40;;;;;;;;;;5063683;28;20024;-79
2022/03/06 04:09:12;;;;;;;11.73;5.63;;;;;;;;;;5065078;28;20058;-80
2022/03/06 04:11:39;;;;;;;15.18;6.68;;;;;;;;;;5064484;28;20020;-74
2022/03/06 04:14:05;;;;;;;9.93;5.63;;;;;;;;;;5059795;28;20114;-80
2022/03/06 04:16:31;;;;;;;8.77;5.57;;;;;;;;;;5043537;28;20184;-79
2022/03/06 04:18:57;;;;;;;17.38;6.38;;;;;;;;;;5038725;28;20082;-79
2022/03/06 04:21:23;;;;;;;9.68;5.68;;;;;;;;;;5040273;28;20045;-79
2022/03/06 04:23:50;;;;;;;13.43;6.10;;;;;;;;;;5041490;28;20037;-79
2022/03/06 04:26:16;;;;;;;13.52;6.38;;;;;;;;;;5058191;28;20247;-79
2022/03/06 04:28:42;;;;;;;10.27;5.50;;;;;;;;;;5060170;28;20108;-78
2022/03/06 04:31:08;;;;;;;13.98;6.53;;;;;;;;;;5058579;28;20028;-78
2022/03/06 04:33:34;;;;;;;11.63;6.75;;;;;;;;;;5060309;28;20052;-78
2022/03/06 04:36:00;;;;;;;8.60;5.18;;;;;;;;;;5058453;28;20025;-79
2022/03/06 04:38:26;;;;;;;11.80;5.82;;;;;;;;;;5059917;28;20036;-77
2022/03/06 04:40:52;;;;;;;15.60;5.53;;;;;;;;;;5057972;28;20024;-79
2022/03/06 04:43:19;;;;;;;9.45;6.15;;;;;;;;;;5059966;28;20530;-78
2022/03/06 04:45:45;;;;;;;9.73;5.68;;;;;;;;;;5059859;28;20029;-78
2022/03/06 04:48:11;;;;;;;12.40;6.45;;;;;;;;;;5058340;28;20134;-79
2022/03/06 04:50:37;;;;;;;11.27;5.40;;;;;;;;;;5058239;28;20518;-78
2022/03/06 04:53:03;;;;;;;10.68;5.82;;;;;;;;;;5059761;28;20512;-79
2022/03/06 04:55:30;;;;;;;13.90;6.60;;;;;;;;;;5059766;28;20020;-79
2022/03/06 04:57:56;;;;;;;13.18;6.50;;;;;;;;;;5059933;28;20124;-78
2022/03/06 05:00:22;;;;;;;11.63;5.97;;;;;;;;;;5058669;28;20024;-78
2022/03/06 05:02:48;;;;;;;15.25;5.70;;;;;;;;;;5059734;28;20542;-78
2022/03/06 05:05:14;;;;;;;11.55;5.72;;;;;;;;;;5058650;28;20055;-81
2022/03/06 05:07:40;;;;;;;13.43;5.95;;;;;;;;;;5057783;28;20033;-79
2022/03/06 05:10:10;;;;;;;12.40;6.38;;;;;;;;;;5059335;28;20025;-78
2022/03/06 05:12:40;;;;;;;9.68;5.28;;;;;;;;;;5059004;28;20016;-78
2022/03/06 05:15:07;;;;;;;12.65;5.35;;;;;;;;;;5057478;28;20025;-80
2022/03/06 05:17:34;;;;;;;11.60;5.70;;;;;;;;;;5059253;28;20035;-78
2022/03/06 05:20:00;;;;;;;15.15;6.25;;;;;;;;;;5059492;28;20024;-78
2022/03/06 05:22:26;;;;;;;11.48;5.65;;;;;;;;;;5058738;28;20639;-78
2022/03/06 05:24:52;;;;;;;7.75;5.10;;;;;;;;;;5058567;28;20033;-78
2022/03/06 05:27:18;;;;;;;12.15;5.30;;;;;;;;;;5058235;28;20142;-78
2022/03/06 05:29:44;;;;;;;11.18;5.72;;;;;;;;;;5057353;28;20093;-78
2022/03/06 05:32:11;;;;;;;10.40;5.82;;;;;;;;;;5058827;28;20017;-78
2022/03/06 05:34:37;;;;;;;9.50;5.45;;;;;;;;;;5056361;28;20032;-78
2022/03/06 05:37:03;;;;;;;8.70;5.35;;;;;;;;;;5050557;28;20107;-78
2022/03/06 05:39:29;;;;;;;11.70;5.95;;;;;;;;;;5056829;28;20538;-78
2022/03/06 05:41:55;;;;;;;12.85;5.65;;;;;;;;;;5058322;28;20024;-79
2022/03/06 05:44:21;;;;;;;10.82;5.47;;;;;;;;;;5058698;28;20032;-79
2022/03/06 05:46:47;;;;;;;15.55;5.95;;;;;;;;;;5058750;28;20707;-77
2022/03/06 05:49:14;;;;;;;10.00;5.53;;;;;;;;;;5057574;28;20257;-78
2022/03/06 05:51:40;;;;;;;13.70;6.35;;;;;;;;;;5056745;28;20182;-78
2022/03/06 05:54:07;;;;;;;18.17;6.45;;;;;;;;;;5058556;28;20017;-78
2022/03/06 05:56:34;;;;;;;18.67;5.95;;;;;;;;;;5058416;28;20558;-78
2022/03/06 05:59:00;;;;;;;11.43;5.53;;;;;;;;;;5052781;28;20503;-78
2022/03/06 06:01:29;;;;;;;7.95;5.43;;;;;;;;;;5057536;28;20607;-79
2022/03/06 06:03:56;;;;;;;10.00;5.88;;;;;;;;;;5058389;28;20036;-78
2022/03/06 06:06:22;;;;;;;12.57;5.50;;;;;;;;;;5058181;28;20031;-78
2022/03/06 06:08:48;;;;;;;7.50;5.07;;;;;;;;;;5058372;28;20028;-79
2022/03/06 06:11:14;;;;;;;15.07;6.47;;;;;;;;;;5056503;28;20028;-78
2022/03/06 06:13:41;;;;;;;12.35;5.65;;;;;;;;;;5056766;28;20082;-79
2022/03/06 06:16:07;;;;;;;13.80;6.45;;;;;;;;;;5059062;28;20025;-78
2022/03/06 06:18:33;;;;;;;11.30;5.68;;;;;;;;;;5058034;28;20093;-79
2022/03/06 06:20:59;;;;;;;12.68;5.88;;;;;;;;;;5058721;28;20045;-78
2022/03/06 06:23:25;;;;;;;9.77;5.95;;;;;;;;;;5064901;28;20044;-77
2022/03/06 06:25:51;;;;;;;13.65;5.88;;;;;;;;;;5065336;28;20171;-82
2022/03/06 06:28:17;;;;;;;12.82;5.63;;;;;;;;;;5064902;28;20441;-79
2022/03/06 06:30:43;;;;;;;11.60;5.40;;;;;;;;;;5064317;28;20028;-81
2022/03/06 06:33:10;;;;;;;11.10;5.60;;;;;;;;;;5062177;28;20024;-79
2022/03/06 06:35:36;;;;;;;10.77;6.43;;;;;;;;;;5074400;28;20025;-79
2022/03/06 06:38:03;;;;;;;10.40;5.97;;;;;;;;;;5061333;28;20024;-79
2022/03/06 06:40:29;;;;;;;10.68;5.63;;;;;;;;;;5061775;28;20024;-79
2022/03/06 06:42:55;;;;;;;11.75;5.50;;;;;;;;;;5061596;28;20037;-79
2022/03/06 06:45:22;;;;;;;14.38;5.65;;;;;;;;;;5060030;28;20029;-79
2022/03/06 06:47:48;;;;;;;11.02;5.05;;;;;;;;;;5059661;28;20032;-79
2022/03/06 06:50:14;;;;;;;9.27;5.25;;;;;;;;;;5060161;28;20024;-80
2022/03/06 06:52:40;;;;;;;13.63;6.05;;;;;;;;;;5060147;28;20535;-80
2022/03/06 06:55:07;;;;;;;9.85;5.85;;;;;;;;;;5053516;28;20123;-79
2022/03/06 06:57:33;;;;;;;12.75;5.88;;;;;;;;;;5059391;28;20036;-80
2022/03/06 07:00:00;;;;;;;13.20;6.05;;;;;;;;;;5058968;28;20464;-80
2022/03/06 07:02:26;;;;;;;11.82;6.00;;;;;;;;;;5061384;28;20032;-79
2022/03/06 07:04:52;;;;;;;9.38;5.57;;;;;;;;;;5060932;28;20036;-78
2022/03/06 07:07:18;;;;;;;11.57;5.30;;;;;;;;;;5061415;28;20031;-79
2022/03/06 07:09:45;;;;;;;8.90;5.40;;;;;;;;;;5061062;28;20035;-79
2022/03/06 07:12:11;;;;;;;9.60;5.68;;;;;;;;;;5059154;28;20048;-80
2022/03/06 07:14:37;;;;;;;8.07;5.53;;;;;;;;;;5061496;28;20032;-79
2022/03/06 07:17:04;;;;;;;9.20;5.65;;;;;;;;;;5061376;28;20036;-79
2022/03/06 07:19:30;;;;;;;14.40;5.28;;;;;;;;;;5060988;28;20519;-79
2022/03/06 07:21:56;;;;;;;13.73;6.10;;;;;;;;;;5058971;28;20055;-79
2022/03/06 07:24:22;;;;;;;10.00;5.60;;;;;;;;;;5063000;28;20078;-79
2022/03/06 07:26:48;;;;;;;9.18;5.75;;;;;;;;;;5063831;28;20021;-78
2022/03/06 07:29:15;;;;;;;9.63;5.57;;;;;;;;;;5062785;28;20079;-81
2022/03/06 07:31:41;;;;;;;9.57;5.15;;;;;;;;;;5061926;28;20932;-80
2022/03/06 07:34:07;;;;;;;8.63;5.03;;;;;;;;;;5062095;28;20020;-80
2022/03/06 07:36:34;;;;;;;13.90;5.57;;;;;;;;;;5064196;28;20031;-82
2022/03/06 07:39:00;;;;;;;17.10;6.05;;;;;;;;;;5063012;28;20018;-78
2022/03/06 07:41:26;;;;;;;9.43;4.85;;;;;;;;;;5063363;28;20042;-81
2022/03/06 07:43:52;;;;;;;11.25;5.05;;;;;;;;;;5062566;28;20056;-80
2022/03/06 07:46:18;;;;;;;9.15;5.03;;;;;;;;;;5063874;28;20661;-80
2022/03/06 07:48:44;;;;;;;11.98;4.95;;;;;;;;;;5060987;28;20032;-82
2022/03/06 07:51:10;;;;;;;6.15;4.03;;;;;;;;;;5063609;28;20016;-83
2022/03/06 07:53:37;;;;;;;8.50;5.40;;;;;;;;;;5065218;28;20539;-82
2022/03/06 07:56:03;;;;;;;9.02;4.85;;;;;;;;;;5064940;28;20020;-83
2022/03/06 07:58:29;;;;;;;7.72;4.82;;;;;;;;;;5063785;28;20056;-84
2022/03/06 08:00:55;;;;;;;9.95;5.25;;;;;;;;;;5061270;28;20480;-85
2022/03/06 08:03:21;;;;;;;11.52;5.43;;;;;;;;;;5063444;28;20032;-81
2022/03/06 08:05:47;;;;;;;8.85;5.10;;;;;;;;;;5063159;28;20042;-81
2022/03/06 08:08:13;;;;;;;9.70;4.78;;;;;;;;;;5062596;28;20025;-82
2022/03/06 08:10:40;;;;;;;14.63;5.30;;;;;;;;;;5062430;28;20021;-89
2022/03/06 08:13:06;;;;;;;10.90;5.00;;;;;;;;;;5063058;28;20029;-79
2022/03/06 08:15:32;;;;;;;8.75;5.68;;;;;;;;;;5062946;28;20027;-80
2022/03/06 08:17:58;;;;;;;8.90;5.13;;;;;;;;;;5063153;28;20078;-84
2022/03/06 08:20:24;;;;;;;10.13;4.70;;;;;;;;;;5059002;28;20081;-81
2022/03/06 08:22:50;;;;;;;11.38;5.22;;;;;;;;;;5060661;28;20044;-81
2022/03/06 08:25:19;;;;;;;8.30;4.70;;;;;;;;;;5061711;28;20020;-82
2022/03/06 08:27:45;;;;;;;10.40;4.70;;;;;;;;;;5061262;28;20795;-82
2022/03/06 08:30:11;;;;;;;8.85;4.82;;;;;;;;;;5062897;28;20024;-81
2022/03/06 08:32:38;;;;;;;9.48;4.90;;;;;;;;;;5060716;28;20365;-86
2022/03/06 08:35:04;;;;;;;7.68;4.72;;;;;;;;;;5062136;28;20120;-83
2022/03/06 08:37:30;;;;;;;9.70;4.80;;;;;;;;;;5060840;28;20035;-81
2022/03/06 08:39:56;;;;;;;8.13;4.40;;;;;;;;;;5062608;28;20027;-80
2022/03/06 08:42:23;;;;;;;10.05;5.22;;;;;;;;;;5061401;28;20054;-79
2022/03/06 08:44:49;;;;;;;8.80;5.28;;;;;;;;;;5060885;28;20031;-81
2022/03/06 08:47:15;;;;;;;9.52;5.30;;;;;;;;;;5062206;28;20031;-82
2022/03/06 08:49:41;;;;;;;9.10;4.72;;;;;;;;;;5062620;28;20541;-83
2022/03/06 08:52:07;;;;;;;8.02;4.70;;;;;;;;;;5061887;28;20024;-83
2022/03/06 08:54:34;;;;;;;11.73;4.40;;;;;;;;;;5063025;28;20024;-83
2022/03/06 08:57:00;;;;;;;11.88;4.70;;;;;;;;;;5061472;28;20036;-82
2022/03/06 08:59:27;;;;;;;8.20;5.32;;;;;;;;;;5061244;28;20028;-82
2022/03/06 09:01:55;;;;;;;10.70;5.28;;;;;;;;;;5063139;28;20051;-82
2022/03/06 09:04:24;;;;;;;10.32;4.72;;;;;;;;;;5062091;28;20036;-82
2022/03/06 09:06:50;;;;;;;5.82;4.38;;;;;;;;;;5061536;28;20505;-83
2022/03/06 09:09:17;;;;;;;10.05;5.05;;;;;;;;;;5062359;28;20494;-83
2022/03/06 09:11:45;;;;;;;8.93;4.93;;;;;;;;;;5060790;28;20035;-82
2022/03/06 09:14:11;;;;;;;8.88;4.93;;;;;;;;;;5060762;28;20663;-81
2022/03/06 09:16:37;;;;;;;10.38;4.70;;;;;;;;;;5061199;28;20062;-81
2022/03/06 09:19:03;;;;;;;9.57;4.97;;;;;;;;;;5060846;28;20028;-82
2022/03/06 09:21:30;;;;;;;9.98;4.82;;;;;;;;;;5059774;28;20044;-82
2022/03/06 09:23:56;;;;;;;10.80;5.57;;;;;;;;;;5057336;28;20127;-83
2022/03/06 09:26:22;;;;;;;9.70;5.32;;;;;;;;;;5060423;28;20530;-82
2022/03/06 09:28:48;;;;;;;7.03;4.60;;;;;;;;;;5061597;28;20293;-81
2022/03/06 09:31:15;;;;;;;10.70;5.15;;;;;;;;;;5061227;28;20032;-82
2022/03/06 09:33:41;;;;;;;11.95;4.75;;;;;;;;;;5061189;28;20392;-84
2022/03/06 09:36:07;;;;;;;8.65;4.93;;;;;;;;;;5061873;28;20077;-80
2022/03/06 09:38:34;;;;;;;7.45;4.78;;;;;;;;;;5061468;28;20052;-80
2022/03/06 09:41:01;;;;;;;9.68;5.13;;;;;;;;;;5062717;28;20406;-81
2022/03/06 09:43:27;;;;;;;8.80;5.13;;;;;;;;;;5059977;28;20028;-80
2022/03/06 09:45:57;;;;;;;9.32;4.65;;;;;;;;;;5062519;28;20051;-80
2022/03/06 09:48:23;;;;;;;12.13;5.47;;;;;;;;;;5061603;28;20036;-81
2022/03/06 09:50:49;;;;;;;9.57;5.15;;;;;;;;;;5062899;28;20059;-82
2022/03/06 09:53:15;;;;;;;8.23;4.47;;;;;;;;;;5064079;28;20476;-85
2022/03/06 09:55:41;;;;;;;8.18;4.70;;;;;;;;;;5066876;28;20086;-82
2022/03/06 09:58:07;;;;;;;14.05;5.70;;;;;;;;;;5068331;28;20033;-86
2022/03/06 10:00:34;;;;;;;9.38;5.20;;;;;;;;;;5069159;28;20743;-87
2022/03/06 10:03:04;;;;;;;7.10;4.80;;;;;;;;;;5069116;28;20033;-88
2022/03/06 10:05:32;;;;;;;12.80;4.75;;;;;;;;;;5070961;28;20538;-88
2022/03/06 10:08:17;;;;;;;10.07;4.60;;;;;;;;;;5070859;28;20078;-87
2022/03/06 10:10:43;;;;;;;13.20;4.93;;;;;;;;;;5063051;28;20403;-88
2022/03/06 10:13:22;;;;;;;10.18;5.13;;;;;;;;;;5068105;28;20020;-85
2022/03/06 10:15:57;;;;;;;6.85;4.95;;;;;;;;;;5067827;28;20028;-84
2022/03/06 10:18:23;;;;;;;12.10;4.65;;;;;;;;;;5064838;28;20089;-83
2022/03/06 10:20:50;;;;;;;11.50;5.88;;;;;;;;;;5064942;28;20044;-84
2022/03/06 10:23:26;;;;;;;7.75;5.00;;;;;;;;;;5064937;28;20040;-83
2022/03/06 10:26:04;;;;;;;10.30;4.72;;;;;;;;;;5058368;28;20097;-81
2022/03/06 10:28:31;;;;;;;6.60;3.95;;;;;;;;;;5064808;28;20549;-83
2022/03/06 10:31:04;;;;;;;9.02;4.40;;;;;;;;;;5060230;28;20488;-75
2022/03/06 10:33:30;;;;;;;8.05;5.03;;;;;;;;;;5062414;28;20036;-75
2022/03/06 10:36:13;;;;;;;7.88;4.82;;;;;;;;;;5065745;28;20043;-82
2022/03/06 10:42:22;;;;;;;7.65;4.85;;;;;;;;;;5028090;28;20045;-86
2022/03/06 10:45:02;;;;;;;7.28;5.00;;;;;;;;;;5006759;28;20028;-85
2022/03/06 10:47:46;;;;;;;13.45;5.22;;;;;;;;;;5034465;28;20574;-81
2022/03/06 10:50:12;;;;;;;7.75;4.68;;;;;;;;;;5063673;28;20495;-78
2022/03/06 10:52:42;;;;;;;9.63;4.70;;;;;;;;;;5060651;28;20116;-78
2022/03/06 10:55:08;;;;;;;8.50;4.28;;;;;;;;;;5060517;28;20524;-78
2022/03/06 10:57:34;;;;;;;9.77;5.28;;;;;;;;;;5060950;28;20032;-78
2022/03/06 11:00:01;;;;;;;8.02;4.93;;;;;;;;;;5059581;28;20024;-78
2022/03/06 11:02:27;;;;;;;8.00;5.03;;;;;;;;;;5060203;28;20046;-78
2022/03/06 11:04:57;;;;;;;7.40;5.25;;;;;;;;;;5061501;28;20060;-81
2022/03/06 11:07:23;;;;;;;9.30;4.78;;;;;;;;;;5059975;28;20032;-77
2022/03/06 11:09:50;;;;;;;11.13;4.95;;;;;;;;;;5060375;28;20414;-78
2022/03/06 11:12:17;;;;;;;7.18;4.47;;;;;;;;;;5061857;28;20024;-77
2022/03/06 11:14:44;;;;;;;9.10;5.13;;;;;;;;;;5063298;28;20029;-76
2022/03/06 11:17:10;;;;;;;6.65;4.35;;;;;;;;;;5064431;28;20104;-79
2022/03/06 11:19:38;;;;;;;10.07;4.50;;;;;;;;;;5066926;28;20028;-80
2022/03/06 11:22:24;;;;;;;6.93;4.85;;;;;;;;;;5066881;28;20040;-78
2022/03/06 11:25:09;;;;;;;6.70;4.70;;;;;;;;;;5063647;28;20028;-79
2022/03/06 11:27:35;;;;;;;10.65;4.90;;;;;;;;;;5066038;28;20036;-79
2022/03/06 11:30:06;;;;;;;11.40;5.18;;;;;;;;;;5066315;28;20458;-77
2022/03/06 11:32:35;;;;;;;7.68;4.78;;;;;;;;;;5064767;28;20032;-79
2022/03/06 11:35:18;;;;;;;14.80;5.40;;;;;;;;;;5065872;28;20027;-80
2022/03/06 11:38:04;;;;;;;7.20;4.28;;;;;;;;;;5056862;28;20481;-80
2022/03/06 11:40:48;;;;;;;13.20;4.30;;;;;;;;;;5056494;28;20396;-80
2022/03/06 11:43:32;;;;;;;7.90;4.78;;;;;;;;;;5052407;28;20044;-80
2022/03/06 11:46:01;;;;;;;11.73;5.50;;;;;;;;;;5060183;28;20195;-81
2022/03/06 11:48:33;;;;;;;9.70;4.43;;;;;;;;;;5057878;28;20094;-81
2022/03/06 11:51:15;;;;;;;7.00;4.65;;;;;;;;;;5056632;28;20455;-81
2022/03/06 11:53:56;;;;;;;7.28;4.13;;;;;;;;;;5058621;28;20039;-81
2022/03/06 11:56:34;;;;;;;11.65;5.80;;;;;;;;;;5051472;28;20037;-81
2022/03/06 11:59:09;;;;;;;8.10;4.47;;;;;;;;;;5057409;28;20038;-82
2022/03/06 12:01:39;;;;;;;7.47;4.05;;;;;;;;;;5058249;28;20062;-84
2022/03/06 12:04:22;;;;;;;6.82;4.35;;;;;;;;;;5060704;28;20102;-80
2022/03/06 12:06:48;;;;;;;8.32;4.45;;;;;;;;;;5058179;28;20036;-80
2022/03/06 12:09:15;;;;;;;9.95;5.07;;;;;;;;;;5059115;28;20273;-81
2022/03/06 12:11:41;;;;;;;10.10;4.93;;;;;;;;;;5059167;28;20110;-81
2022/03/06 12:14:17;;;;;;;9.95;5.05;;;;;;;;;;5057846;28;20029;-81
2022/03/06 12:19:51;;;;;;;10.85;5.10;;;;;;;;;;5052905;28;20029;-81
2022/03/06 12:22:21;;;;;;;9.98;4.78;;;;;;;;;;5056810;28;20076;-82
2022/03/06 12:24:49;;;;;;;6.45;4.53;;;;;;;;;;5059750;28;20043;-82
2022/03/06 12:27:18;;;;;;;8.23;4.75;;;;;;;;;;5056422;28;20521;-81
2022/03/06 12:29:47;;;;;;;7.95;4.25;;;;;;;;;;5057025;28;20033;-83
2022/03/06 12:32:26;;;;;;;8.48;4.70;;;;;;;;;;5058279;28;20135;-76
2022/03/06 12:34:56;;;;;;;9.75;4.47;;;;;;;;;;5059893;28;20108;-75
2022/03/06 12:37:25;;;;;;;7.45;4.68;;;;;;;;;;5059240;28;20641;-75
2022/03/06 12:39:51;;;;;;;13.05;4.32;;;;;;;;;;5057977;28;20028;-76
2022/03/06 12:42:25;;;;;;;7.95;4.38;;;;;;;;;;5056165;28;20480;-76
2022/03/06 12:44:53;;;;;;;7.65;4.63;;;;;;;;;;5059749;28;20028;-80
2022/03/06 12:47:19;;;;;;;9.65;5.50;;;;;;;;;;5058150;28;20020;-79
2022/03/06 12:49:46;;;;;;;6.13;4.20;;;;;;;;;;5057956;28;20424;-79
2022/03/06 12:52:15;;;;;;;7.13;4.70;;;;;;;;;;5056442;28;20029;-78
2022/03/06 12:54:42;;;;;;;8.43;4.20;;;;;;;;;;5059078;28;20472;-78
2022/03/06 12:57:08;;;;;;;10.38;5.07;;;;;;;;;;5058104;28;20496;-79
2022/03/06 12:59:39;;;;;;;9.25;4.72;;;;;;;;;;5057412;28;20020;-79
2022/03/06 13:02:06;;;;;;;6.90;4.30;;;;;;;;;;5056230;28;20272;-79
2022/03/06 13:04:34;;;;;;;7.70;4.93;;;;;;;;;;5058002;28;20339;-79
2022/03/06 13:07:00;;;;;;;10.23;5.35;;;;;;;;;;5058463;28;20059;-79
2022/03/06 13:09:34;;;;;;;8.63;5.03;;;;;;;;;;5056565;28;20051;-79
2022/03/06 13:12:01;;;;;;;15.88;7.88;;;;;;;;;;5056890;28;20115;-79
2022/03/06 13:14:28;;;;;;;14.13;8.13;;;;;;;;;;5057963;28;20024;-79
2022/03/06 13:16:56;;;;;;;12.23;8.35;;;;;;;;;;5055166;28;20035;-79
2022/03/06 13:19:22;;;;;;;11.70;7.00;;;;;;;;;;5057616;28;20254;-79
2022/03/06 13:21:48;;;;;;;10.13;5.40;;;;;;;;;;5058243;28;20061;-79
2022/03/06 13:24:15;;;;;;;11.10;5.53;;;;;;;;;;5058240;28;20169;-79
2022/03/06 13:26:42;;;;;;;7.75;4.40;;;;;;;;;;5058423;28;20036;-79
2022/03/06 13:29:13;;;;;;;10.05;4.93;;;;;;;;;;5055367;28;20050;-79
2022/03/06 13:31:48;;;;;;;10.70;4.82;;;;;;;;;;5056652;28;20036;-79
2022/03/06 13:34:15;;;;;;;10.07;4.57;;;;;;;;;;5057578;28;20029;-79
2022/03/06 13:36:41;;;;;;;11.20;4.72;;;;;;;;;;5058119;28;20024;-79
2022/03/06 13:39:09;;;;;;;6.32;4.43;;;;;;;;;;5058491;28;20021;-78
2022/03/06 13:41:35;;;;;;;7.05;4.47;;;;;;;;;;5056174;28;20032;-79
2022/03/06 13:44:05;;;;;;;8.43;4.50;;;;;;;;;;5057578;28;20661;-79
2022/03/06 13:46:36;;;;;;;7.18;4.28;;;;;;;;;;5058367;28;20029;-79
2022/03/06 13:49:09;;;;;;;8.55;4.30;;;;;;;;;;5057850;28;20031;-79
2022/03/06 13:51:35;;;;;;;10.02;4.30;;;;;;;;;;5058452;28;20032;-78
2022/03/06 13:54:03;;;;;;;7.75;4.47;;;;;;;;;;5055746;28;20181;-79
2022/03/06 13:56:31;;;;;;;14.80;5.15;;;;;;;;;;5056498;28;20658;-79
2022/03/06 13:58:57;;;;;;;7.05;3.92;;;;;;;;;;5055985;28;20021;-79
2022/03/06 14:01:25;;;;;;;11.95;5.07;;;;;;;;;;5055629;28;20102;-79
2022/03/06 14:03:57;;;;;;;9.55;5.07;;;;;;;;;;5059222;28;20036;-79
2022/03/06 14:06:32;;;;;;;9.48;4.63;;;;;;;;;;5056301;28;20104;-78
2022/03/06 14:08:59;;;;;;;5.80;3.85;;;;;;;;;;5057564;28;20036;-79
2022/03/06 14:11:29;;;;;;;8.32;4.65;;;;;;;;;;5057917;28;20032;-78
2022/03/06 14:13:59;;;;;;;9.10;4.57;;;;;;;;;;5056850;28;20064;-79
2022/03/06 14:16:27;;;;;;;9.80;3.90;;;;;;;;;;5056259;28;20510;-78
2022/03/06 14:18:58;;;;;;;5.93;3.97;;;;;;;;;;5054410;28;20914;-79
2022/03/06 14:21:29;;;;;;;7.07;4.10;;;;;;;;;;5057831;28;20040;-78
2022/03/06 14:23:55;;;;;;;7.97;4.28;;;;;;;;;;5050163;28;20039;-78
2022/03/06 14:26:27;;;;;;;8.18;4.40;;;;;;;;;;5057038;28;20055;-79
2022/03/06 14:29:00;;;;;;;6.13;4.22;;;;;;;;;;5057221;28;20520;-78
2022/03/06 14:31:27;;;;;;;6.68;4.22;;;;;;;;;;5056892;28;20535;-79
2022/03/06 14:33:54;;;;;;;8.15;4.72;;;;;;;;;;5057379;28;20532;-79
2022/03/06 14:36:20;;;;;;;10.52;5.30;;;;;;;;;;5057516;28;20108;-79
2022/03/06 14:38:46;;;;;;;9.18;4.05;;;;;;;;;;5055688;28;20040;-78
2022/03/06 14:41:13;;;;;;;9.35;3.92;;;;;;;;;;5053009;28;20017;-78
2022/03/06 14:43:39;;;;;;;8.18;4.78;;;;;;;;;;5061403;28;20032;-79
2022/03/06 14:46:07;;;;;;;6.10;4.03;;;;;;;;;;5052085;28;20504;-79
2022/03/06 14:48:33;;;;;;;6.57;4.63;;;;;;;;;;5059715;28;20027;-79